Date,TemperatureHighF,TemperatureAvgF,TemperatureLowF,DewpointHighF,DewpointAvgF,DewpointLowF,HumidityHigh,HumidityAvg,HumidityLow,PressureMaxIn,PressureMinIn,WindSpeedMaxMPH,WindSpeedAvgMPH,GustSpeedMaxMPH,PrecipitationSumIn
2013-1-1,61.7,49.0,39.9,44.8,37.0,24.3,90,66,36,30.31,30.15,6,0,6,0.00
2013-1-2,66.4,51.6,39.6,34.7,29.2,20.3,73,45,20,30.20,30.09,7,0,8,0.00
2013-1-3,71.4,50.2,36.1,46.9,33.1,21.2,83,57,16,30.25,30.11,5,0,7,0.00
2013-1-4,67.3,49.8,36.3,33.8,27.9,19.8,73,48,18,30.34,30.24,7,0,7,0.00
2013-1-5,64.9,48.6,35.6,40.8,34.5,27.1,84,61,30,30.35,30.25,5,0,7,0.00
2013-1-6,57.0,48.7,42.8,48.0,44.0,38.7,95,84,64,30.27,30.09,8,0,11,0.00
2013-1-7,65.5,51.2,41.2,44.4,40.1,27.5,95,70,25,30.16,30.04,10,1,12,0.01
2013-1-8,72.0,52.5,39.0,53.6,43.6,35.2,91,74,47,30.18,30.08,5,0,6,0.00
2013-1-9,70.0,53.8,43.3,52.0,46.3,40.5,93,78,36,30.19,30.08,6,0,7,0.00
2013-1-10,57.4,51.8,45.9,49.8,40.6,24.6,93,67,39,30.16,29.98,12,2,15,0.00
2013-1-11,55.0,45.2,34.0,32.9,28.6,22.3,84,54,31,30.26,30.13,11,1,14,0.00
2013-1-12,55.6,43.8,32.9,33.4,28.8,21.7,77,58,31,30.23,30.14,6,0,8,0.00
2013-1-13,56.1,43.3,33.1,36.3,29.7,23.4,83,62,30,30.23,30.13,8,0,8,0.00
2013-1-14,54.1,44.2,33.6,30.2,11.4,-4.4,78,32,9,30.40,30.19,19,2,20,0.00
2013-1-15,60.3,45.5,32.4,34.3,24.4,11.5,66,45,23,30.52,30.38,7,0,8,0.00
2013-1-16,69.3,50.8,36.1,41.4,34.3,29.1,79,56,29,30.42,30.17,9,0,9,0.00
2013-1-17,81.5,58.2,40.8,35.8,29.6,19.4,68,39,11,30.23,30.09,7,0,7,0.00
2013-1-18,81.1,58.9,42.3,39.4,30.3,24.6,60,38,14,30.19,30.10,7,0,8,0.00
2013-1-19,79.5,59.5,43.9,36.0,29.2,23.5,58,36,14,30.24,30.13,6,0,8,0.00
2013-1-20,82.6,59.2,42.1,35.2,28.1,17.8,58,35,10,30.19,30.05,6,0,6,0.00
2013-1-21,81.0,59.2,42.3,34.9,26.5,15.3,61,34,9,30.14,30.06,6,0,7,0.00
2013-1-22,81.1,59.4,41.5,37.2,26.6,14.7,56,33,9,30.15,30.06,7,0,8,0.00
2013-1-23,75.6,61.7,52.0,48.6,38.1,29.8,67,43,25,30.20,30.07,8,0,8,0.00
2013-1-24,69.4,59.6,54.0,58.3,54.1,48.2,93,83,64,30.25,30.16,7,0,8,0.25
2013-1-25,64.0,59.7,56.7,61.5,57.8,54.9,98,93,86,30.17,30.00,7,0,8,0.06
2013-1-26,66.6,58.7,53.4,62.2,57.1,52.3,97,94,83,30.08,29.95,7,0,7,0.03
2013-1-27,59.7,53.1,48.6,53.1,49.3,45.0,97,87,68,30.11,30.04,9,0,10,0.02
2013-1-28,59.0,48.8,39.7,45.1,39.3,30.9,94,72,38,30.25,30.07,12,1,13,0.00
2013-1-29,60.3,48.0,37.2,43.3,39.6,34.0,90,74,44,30.31,30.23,7,0,8,0.01
2013-1-30,63.0,47.0,39.6,46.4,41.1,37.4,94,81,50,30.40,30.29,7,0,9,0.00
2013-1-31,79.3,59.0,43.2,50.9,43.4,37.8,92,60,24,30.31,30.14,8,0,9,0.00
2013-2-1,74.7,59.4,46.6,49.6,44.3,39.6,83,60,34,30.23,30.16,7,0,7,0.00
2013-2-2,73.8,61.3,52.0,53.4,48.8,44.8,82,65,38,30.25,30.15,7,0,8,0.00
2013-2-3,74.5,61.7,51.1,54.9,49.3,43.7,86,66,40,30.19,30.06,6,0,8,0.00
2013-2-4,69.4,55.0,44.2,56.3,48.6,41.4,93,80,54,30.16,30.04,7,0,8,0.00
2013-2-5,56.7,51.6,47.7,51.4,48.6,46.2,96,90,81,30.18,30.05,6,0,6,0.00
2013-2-6,62.6,54.9,47.8,50.9,48.1,45.1,93,79,62,30.18,30.07,7,0,9,0.00
2013-2-7,61.3,51.2,41.5,52.0,46.3,39.9,96,84,70,30.20,30.07,8,0,8,0.00
2013-2-8,54.1,48.1,41.5,48.0,42.4,39.0,92,81,64,30.08,29.97,10,0,15,0.00
2013-2-9,58.1,45.7,35.1,44.6,39.2,33.4,96,80,44,30.19,30.00,8,0,10,0.00
2013-2-10,55.8,46.8,37.8,44.6,41.0,35.2,93,81,61,30.19,30.09,6,0,6,0.00
2013-2-11,61.5,48.9,37.4,47.7,40.8,35.2,94,76,42,30.31,30.13,8,0,9,0.00
2013-2-12,62.6,49.1,36.1,48.4,40.2,32.5,89,73,48,30.41,30.31,8,0,9,0.00
2013-2-13,67.5,51.4,37.8,49.8,41.6,34.7,91,72,37,30.33,30.20,9,0,9,0.00
2013-2-14,73.8,54.8,39.9,50.4,44.2,37.0,92,71,38,30.28,30.10,9,1,10,0.00
2013-2-15,82.4,61.6,43.9,45.3,34.5,22.3,87,44,12,30.24,30.16,16,1,18,0.00
2013-2-16,82.0,63.1,48.4,35.6,27.6,19.8,52,29,12,30.21,30.04,8,0,9,0.00
2013-2-17,65.8,53.4,43.3,51.1,42.5,30.0,88,67,47,30.09,29.99,10,1,10,0.00
2013-2-18,63.9,54.6,50.5,49.5,46.4,43.7,86,74,57,30.13,30.02,9,0,9,0.00
2013-2-19,53.2,50.3,45.1,48.9,43.8,40.1,93,79,67,30.06,29.78,8,0,10,0.00
2013-2-20,58.3,49.3,40.5,43.0,37.8,29.5,89,66,40,30.07,29.78,11,1,13,0.00
2013-2-21,59.7,49.7,43.2,46.6,42.4,38.7,90,77,55,30.16,30.04,7,0,9,0.00
2013-2-22,65.5,50.7,37.6,48.6,41.2,33.4,93,73,33,30.27,30.16,9,0,10,0.00
2013-2-23,65.1,51.1,38.7,47.8,42.2,35.8,92,74,41,30.24,29.99,8,0,10,0.00
2013-2-24,67.3,54.5,41.2,45.1,25.4,1.2,95,47,8,30.27,30.05,22,3,25,0.00
2013-2-25,69.3,53.3,38.1,36.5,28.0,18.5,71,41,16,30.28,30.14,8,0,9,0.00
2013-2-26,70.0,53.1,37.8,49.5,40.8,31.6,86,65,40,30.17,30.04,9,1,9,0.00
2013-2-27,75.7,57.6,41.7,42.8,31.1,24.1,84,43,17,30.32,30.17,8,0,12,0.00
2013-2-28,81.1,60.5,41.5,33.8,26.6,15.8,64,33,11,30.36,30.28,11,0,11,0.00
2013-3-1,88.0,67.0,47.3,36.5,30.4,24.6,56,30,11,30.35,30.19,9,0,9,0.00
2013-3-2,86.7,66.6,50.5,43.2,32.8,25.0,56,33,11,30.26,30.13,6,0,6,0.00
2013-3-3,73.9,59.4,51.3,52.2,45.4,36.9,90,62,27,30.16,30.04,9,0,9,0.00
2013-3-4,68.5,58.0,52.0,53.6,50.6,48.0,89,77,57,30.17,30.08,8,0,10,0.00
2013-3-5,63.3,55.3,52.2,53.8,50.4,47.8,91,84,68,30.19,30.10,8,0,8,0.00
2013-3-6,63.3,55.6,49.6,49.8,46.0,43.7,87,71,51,30.22,30.07,11,0,11,0.00
2013-3-7,58.5,53.5,49.6,51.4,48.7,45.3,94,84,68,30.08,29.93,7,0,7,0.07
2013-3-8,56.3,50.3,46.0,47.5,45.0,40.6,94,83,60,30.11,29.84,11,1,13,0.00
2013-3-9,62.4,53.8,47.1,48.2,45.9,42.1,93,76,56,30.28,30.10,9,0,11,0.27
2013-3-10,72.9,55.8,40.6,51.3,41.8,32.5,95,65,25,30.32,30.21,7,0,10,0.09
2013-3-11,76.8,58.6,42.4,48.7,42.9,37.0,84,60,29,30.24,30.10,7,0,7,0.00
2013-3-12,78.3,59.8,43.3,54.1,47.1,41.4,96,68,28,30.15,30.05,9,1,10,0.00
2013-3-13,84.6,62.7,48.0,58.8,51.4,43.3,94,71,27,30.17,30.06,8,1,8,0.00
2013-3-14,80.8,62.2,49.6,59.4,52.3,48.2,97,75,37,30.14,30.05,8,1,10,0.00
2013-3-15,78.4,59.5,50.5,57.0,52.1,48.6,96,79,42,30.11,30.00,7,0,7,0.00
2013-3-16,68.5,55.9,48.2,54.1,50.4,46.6,95,83,59,30.04,29.96,8,0,9,0.00
2013-3-17,68.9,58.4,53.2,54.7,51.8,49.6,91,80,60,30.06,29.99,8,0,8,0.00
2013-3-18,64.8,57.6,53.2,53.4,51.1,50.0,89,79,64,30.15,30.05,6,0,8,0.00
2013-3-19,69.4,57.9,50.4,55.2,51.8,47.8,93,81,60,30.19,30.11,7,0,8,0.00
2013-3-20,71.8,59.6,49.6,57.4,52.5,47.8,95,79,57,30.17,30.03,7,0,7,0.00
2013-3-21,72.0,59.9,51.3,55.0,51.9,49.1,93,77,51,30.04,29.87,7,0,9,0.00
2013-3-22,69.1,58.7,51.3,55.2,52.0,49.1,94,80,57,29.98,29.87,9,0,11,0.00
2013-3-23,70.3,58.7,48.9,55.4,51.5,46.4,93,78,56,30.09,29.97,9,0,9,0.00
2013-3-24,76.1,60.6,51.3,56.7,52.2,49.3,94,77,42,30.08,29.94,7,0,7,0.00
2013-3-25,62.8,54.8,50.5,55.0,52.1,49.1,96,91,75,30.03,29.96,2,0,3,0.00
2013-3-26,69.3,59.0,53.1,56.1,52.6,49.5,92,80,55,30.04,29.96,7,0,9,0.00
2013-3-27,66.4,58.5,53.4,54.3,52.0,50.4,91,80,63,30.11,29.99,9,1,12,0.00
2013-3-28,75.0,61.2,53.4,58.3,53.2,50.2,92,77,48,30.14,30.06,7,0,8,0.00
2013-3-29,72.0,60.3,54.7,58.6,54.8,52.7,93,83,62,30.17,30.09,6,0,9,0.00
2013-3-30,72.7,61.3,54.9,58.3,54.0,48.7,93,78,57,30.19,30.11,8,1,8,0.00
2013-3-31,70.2,59.7,52.5,57.6,53.8,50.2,93,82,60,30.19,30.12,8,1,11,0.00
2013-4-1,68.2,59.0,54.0,54.3,52.0,49.1,90,79,57,30.23,30.14,11,1,12,0.00
2013-4-2,70.3,60.0,52.7,55.0,52.9,50.2,93,79,56,30.16,30.05,7,0,10,0.00
2013-4-3,76.3,61.1,53.1,58.6,54.4,50.7,93,80,50,30.15,30.04,7,0,8,0.00
2013-4-4,76.3,62.8,55.2,58.1,54.6,52.9,93,76,48,30.17,30.06,6,0,8,0.00
2013-4-5,68.7,60.1,56.1,58.1,55.1,53.2,94,84,66,30.16,30.06,8,0,10,0.00
2013-4-6,70.5,61.6,55.9,57.4,54.4,52.3,89,78,60,30.15,30.02,9,0,11,0.00
2013-4-7,70.3,59.6,50.2,56.1,53.3,48.2,94,81,60,30.04,29.88,8,0,10,0.00
2013-4-8,66.4,58.8,53.2,54.3,48.6,43.0,90,71,45,29.89,29.74,15,1,15,0.00
2013-4-9,72.5,58.7,46.6,50.2,41.7,27.5,89,59,21,30.07,29.88,9,1,14,0.00
2013-4-10,80.4,63.0,46.0,50.5,40.2,26.1,80,49,14,30.14,30.05,10,1,13,0.00
2013-4-11,72.5,59.3,48.9,55.0,47.4,38.1,84,66,35,30.07,29.86,12,1,13,0.00
2013-4-12,71.8,61.0,56.3,56.1,53.0,50.9,89,76,56,29.96,29.83,13,0,13,0.00
2013-4-13,59.9,57.7,55.2,55.4,53.4,49.8,89,86,82,29.98,29.91,6,0,6,0.00
2013-4-14,62.2,56.8,53.4,54.1,51.0,49.1,90,81,72,29.95,29.89,8,0,11,0.00
2013-4-15,63.1,57.3,53.6,54.9,51.5,47.8,91,81,68,29.98,29.91,10,1,13,0.01
2013-4-16,63.7,55.7,49.5,47.8,45.2,38.8,83,69,46,30.06,29.93,12,1,12,0.01
2013-4-17,70.7,57.8,43.7,43.9,33.5,21.6,89,48,18,30.19,30.05,13,2,13,0.00
2013-4-18,79.5,65.2,47.7,34.2,24.3,12.7,58,25,9,30.24,30.15,16,2,18,0.00
2013-4-19,86.2,66.5,47.1,38.1,29.1,16.5,64,31,8,30.20,30.02,13,1,13,0.00
2013-4-20,84.6,66.5,50.7,54.5,46.7,36.7,83,55,21,30.06,29.92,11,0,11,0.00
2013-4-21,81.1,63.6,53.2,57.4,54.2,47.8,95,75,32,30.07,30.00,8,0,8,0.00
2013-4-22,72.9,60.7,54.7,56.3,53.3,51.3,92,78,55,30.07,29.97,9,0,10,0.00
2013-4-23,73.6,61.5,55.8,55.2,52.6,50.7,86,74,52,30.04,29.91,7,0,7,0.00
2013-4-24,61.9,58.7,56.7,55.0,53.2,50.2,92,82,67,30.05,29.96,5,0,7,0.01
2013-4-25,72.1,61.9,56.3,54.1,52.7,50.2,91,73,47,30.18,30.03,7,0,10,0.00
2013-4-26,78.3,63.4,50.4,54.9,52.1,47.8,92,70,41,30.21,30.14,7,0,8,0.00
2013-4-27,78.4,63.5,51.4,60.8,55.2,49.3,95,77,47,30.22,30.04,8,0,10,0.00
2013-4-28,78.4,63.4,57.0,61.0,56.5,54.1,91,80,54,30.09,29.92,8,0,8,0.00
2013-4-29,72.7,61.5,56.5,59.4,55.7,53.8,92,82,61,29.97,29.85,10,0,10,0.00
2013-4-30,67.5,60.8,57.7,56.8,54.2,52.5,87,79,67,29.96,29.88,12,1,12,0.00
2013-5-1,75.0,64.5,58.5,58.8,56.3,54.9,89,76,55,30.16,29.96,8,0,9,0.00
2013-5-2,94.3,73.0,54.1,59.5,47.7,6.6,93,54,4,30.17,30.02,9,1,11,0.00
2013-5-3,93.9,73.4,54.7,57.6,39.9,10.2,81,44,5,30.07,29.83,8,0,9,0.00
2013-5-4,70.3,62.7,58.6,57.4,55.3,52.3,92,77,62,29.92,29.81,12,1,15,0.00
2013-5-5,64.8,60.7,57.4,55.4,53.8,51.8,91,78,65,30.02,29.89,9,0,11,0.03
2013-5-6,66.0,59.7,55.9,59.4,56.0,53.6,96,88,68,30.09,29.96,8,0,10,0.38
2013-5-7,70.9,61.4,55.8,56.3,53.3,48.0,93,77,47,30.14,30.04,10,1,11,0.01
2013-5-8,68.7,61.3,54.0,57.0,53.3,47.8,93,76,53,30.16,30.13,10,0,10,0.00
2013-5-9,70.9,61.8,52.7,58.1,54.6,50.5,93,78,61,30.16,30.09,8,0,11,0.00
2013-5-10,80.2,66.2,56.7,62.1,57.7,53.6,92,76,53,30.14,30.06,9,0,10,0.00
2013-5-11,88.3,69.1,58.1,65.8,60.1,55.9,94,76,43,30.14,30.02,9,1,10,0.00
2013-5-12,98.1,75.3,59.2,66.4,59.1,49.1,96,64,21,30.11,29.96,9,1,11,0.00
2013-5-13,98.2,79.9,63.1,61.7,55.8,47.7,83,50,19,30.01,29.91,11,1,11,0.00
2013-5-14,84.0,68.8,59.5,61.2,56.4,51.8,85,66,42,30.06,29.95,8,0,9,0.00
2013-5-15,72.3,64.4,59.7,58.5,56.0,54.3,85,75,60,30.10,30.01,9,1,10,0.00
2013-5-16,72.9,64.8,60.4,59.4,56.3,53.8,83,75,59,30.04,29.95,8,0,8,0.00
2013-5-17,71.4,65.3,60.4,59.5,57.2,54.7,89,76,63,30.07,29.96,10,1,12,0.00
2013-5-18,73.4,65.2,58.1,58.8,57.1,54.9,90,76,57,30.09,30.03,8,1,12,0.00
2013-5-19,73.9,65.5,57.9,59.7,57.4,54.5,90,76,60,30.05,29.94,9,0,10,0.00
2013-5-20,83.5,66.9,58.5,62.8,59.0,55.8,92,78,45,30.01,29.94,8,0,10,0.00
2013-5-21,80.6,67.1,61.0,63.7,59.8,58.1,91,79,52,30.00,29.90,7,0,8,0.00
2013-5-22,72.1,65.4,61.9,59.0,57.0,55.4,85,75,59,29.91,29.84,13,1,13,0.00
2013-5-23,70.5,63.9,58.6,56.7,55.0,53.4,85,73,58,30.00,29.88,11,1,11,0.00
2013-5-24,70.2,63.0,57.0,56.5,53.7,51.3,85,72,56,30.06,29.97,11,1,12,0.00
2013-5-25,72.0,62.0,52.2,57.2,53.3,49.1,90,75,54,30.09,30.04,10,1,11,0.00
2013-5-26,70.9,62.9,56.3,57.0,54.6,52.2,88,75,60,30.12,30.05,10,1,11,0.00
2013-5-27,73.4,63.6,54.1,59.5,56.2,51.6,92,78,57,30.07,29.93,10,1,11,0.00
2013-5-28,75.2,66.8,61.3,60.3,57.7,55.0,87,73,56,29.96,29.81,10,0,12,0.00
2013-5-29,80.1,68.4,60.4,62.4,59.4,56.8,89,75,52,29.87,29.78,9,0,11,0.00
2013-5-30,76.8,66.5,58.5,62.4,59.2,55.9,92,78,57,29.95,29.82,10,1,10,0.00
2013-5-31,79.3,67.7,61.5,62.6,59.6,57.0,87,77,56,29.97,29.87,8,1,9,0.00
2013-6-1,82.6,68.4,62.6,65.3,61.2,59.2,89,79,55,29.92,29.83,9,1,12,0.00
2013-6-2,69.8,64.4,61.9,61.2,59.6,57.2,92,84,72,29.90,29.83,10,0,11,0.00
2013-6-3,73.6,64.9,59.5,60.6,58.3,56.5,92,80,62,29.96,29.86,9,1,11,0.00
2013-6-4,74.3,65.4,61.0,60.4,57.9,56.3,87,77,59,30.04,29.95,8,0,10,0.00
2013-6-5,77.2,66.3,60.1,60.4,58.0,56.5,89,75,54,30.06,29.96,10,0,10,0.00
2013-6-6,74.3,64.6,59.4,61.3,58.2,56.1,90,80,63,30.01,29.93,10,0,10,0.00
2013-6-7,74.5,65.0,59.4,61.3,58.6,56.7,91,81,62,29.98,29.85,7,0,10,0.00
2013-6-8,70.9,63.8,60.4,61.2,58.4,56.8,89,83,69,29.97,29.86,11,1,11,0.00
2013-6-9,73.0,63.9,59.9,61.9,58.1,56.3,90,82,68,30.00,29.93,8,1,11,0.00
2013-6-10,75.7,66.7,60.3,60.1,57.4,54.5,86,73,56,30.01,29.96,8,0,10,0.00
2013-6-11,81.3,68.2,59.2,64.8,60.1,56.8,92,77,51,30.00,29.93,8,1,8,0.00
2013-6-12,74.8,65.0,61.2,62.8,59.8,58.8,92,84,63,30.09,29.98,7,0,8,0.00
2013-6-13,77.5,67.6,62.1,62.1,59.8,57.9,88,77,57,30.08,29.96,10,0,10,0.00
2013-6-14,73.9,65.0,60.4,61.0,58.1,55.4,88,79,61,29.99,29.91,7,1,9,0.00
2013-6-15,74.5,65.0,58.5,59.0,56.7,54.7,89,76,56,30.05,29.96,12,1,12,0.00
2013-6-16,76.6,67.5,61.2,60.4,57.9,55.2,87,72,54,30.09,30.00,8,0,8,0.00
2013-6-17,80.1,67.7,59.9,63.5,59.7,57.2,92,77,54,30.05,29.95,7,0,10,0.00
2013-6-18,76.8,66.8,59.5,62.2,59.9,57.2,93,80,59,29.98,29.90,9,0,10,0.00
2013-6-19,80.8,69.2,61.7,62.2,58.5,54.3,88,71,43,29.94,29.85,11,0,12,0.00
2013-6-20,81.3,69.9,59.5,60.6,58.0,48.0,93,69,33,29.93,29.86,10,0,10,0.00
2013-6-21,79.2,69.1,61.5,62.1,59.6,57.0,92,73,52,29.96,29.88,10,1,10,0.00
2013-6-22,79.2,67.7,61.3,61.5,59.3,57.4,91,76,53,29.98,29.87,7,1,10,0.00
2013-6-23,73.9,65.7,61.9,60.8,58.3,57.0,85,77,60,29.95,29.86,8,0,10,0.00
2013-6-24,75.6,66.0,61.3,62.1,59.1,55.6,92,79,60,30.01,29.90,8,0,8,0.00
2013-6-25,78.1,69.2,60.8,64.0,61.2,58.1,92,77,60,30.06,29.95,9,1,11,0.00
2013-6-26,87.3,73.4,63.0,66.9,63.0,59.7,92,72,47,30.04,29.95,9,1,10,0.00
2013-6-27,92.8,75.2,63.9,66.9,63.7,61.5,92,71,39,30.08,30.01,7,0,7,0.00
2013-6-28,95.7,77.0,61.9,68.5,63.3,59.9,94,67,35,30.06,29.91,9,1,9,0.00
2013-6-29,93.6,78.3,65.7,69.4,64.9,62.1,91,67,39,29.94,29.78,9,0,10,0.00
2013-6-30,87.1,73.3,66.9,68.5,65.4,62.8,90,77,52,29.87,29.76,8,0,10,0.00
2013-7-1,95.0,74.7,64.8,68.5,63.7,56.8,93,73,29,29.94,29.86,6,0,7,0.00
2013-7-2,80.4,70.3,62.8,68.0,64.3,60.8,94,82,64,30.05,29.93,9,1,10,0.00
2013-7-3,88.3,72.1,64.2,69.4,64.5,61.3,93,78,52,29.99,29.85,6,0,9,0.00
2013-7-4,85.3,70.7,63.3,66.9,63.0,61.0,93,78,53,29.89,29.81,7,0,8,0.00
2013-7-5,80.8,69.9,65.1,65.8,62.6,60.8,87,78,60,29.90,29.83,8,0,11,0.00
2013-7-6,79.7,70.1,66.4,66.7,63.4,61.3,88,80,64,29.89,29.81,7,0,10,0.00
2013-7-7,86.4,73.3,65.5,68.0,64.3,61.9,89,75,51,29.92,29.81,7,0,10,0.00
2013-7-8,89.1,73.9,62.2,67.6,63.1,60.3,94,72,41,29.98,29.89,11,1,11,0.00
2013-7-9,84.0,72.9,63.9,67.3,63.2,58.8,90,73,48,30.06,29.95,8,0,9,0.00
2013-7-10,79.9,71.6,67.8,67.8,65.4,59.2,89,81,50,30.03,29.95,6,0,7,0.00
2013-7-11,76.3,70.4,66.7,68.4,65.5,63.5,92,85,75,30.02,29.94,6,0,6,0.00
2013-7-12,83.8,73.1,65.8,69.1,65.4,62.1,90,78,57,29.99,29.90,8,0,10,0.00
2013-7-13,83.8,72.7,65.7,67.6,63.7,61.2,91,75,53,30.01,29.90,8,0,8,0.00
2013-7-14,87.6,73.3,65.1,67.8,63.9,59.5,89,74,40,29.98,29.88,7,0,8,0.00
2013-7-15,88.3,74.3,65.1,67.1,62.8,55.4,92,70,37,29.93,29.85,7,0,8,0.00
2013-7-16,86.4,72.4,61.7,65.5,59.5,48.2,93,68,28,30.04,29.91,7,0,7,0.00
2013-7-17,91.0,73.9,57.7,63.9,57.6,26.2,94,64,10,30.07,29.99,8,0,9,0.00
2013-7-18,85.3,71.4,59.5,65.3,60.7,56.3,92,71,46,30.05,29.90,7,0,8,0.00
2013-7-19,80.1,69.4,62.8,66.2,62.5,60.1,92,80,62,29.96,29.88,7,1,8,0.00
2013-7-20,72.3,67.4,64.2,64.4,62.1,60.4,89,83,75,29.94,29.85,6,0,7,0.00
2013-7-21,72.7,67.4,64.8,65.1,62.8,61.2,90,85,76,29.98,29.84,6,0,7,0.00
2013-7-22,82.4,71.5,64.0,67.3,64.0,61.3,92,78,59,30.03,29.96,7,0,9,0.00
2013-7-23,83.7,71.9,64.6,67.5,63.2,60.8,91,76,48,30.08,29.97,7,0,10,0.00
2013-7-24,83.7,71.8,62.8,66.2,62.8,60.1,92,75,55,30.03,29.94,9,1,9,0.00
2013-7-25,81.7,70.3,63.3,65.1,62.4,60.3,91,77,56,30.07,29.98,7,0,9,0.00
2013-7-26,85.1,70.7,64.2,67.5,63.8,61.5,92,80,55,30.13,30.02,8,0,9,0.00
2013-7-27,81.7,69.1,63.9,66.6,62.9,60.6,92,82,58,30.07,29.93,9,0,9,0.00
2013-7-28,76.6,66.6,62.1,64.0,61.0,59.2,93,83,63,29.99,29.93,8,0,10,0.00
2013-7-29,77.9,67.7,62.1,61.7,59.3,57.6,86,75,57,30.10,29.97,7,0,8,0.00
2013-7-30,78.1,67.5,60.8,62.4,59.0,57.0,89,76,56,30.18,30.09,9,1,10,0.00
2013-7-31,75.0,65.5,58.8,61.9,58.6,55.9,92,79,61,30.17,30.06,8,0,10,0.00
2013-8-1,77.4,67.9,62.1,61.0,58.8,56.8,87,74,54,30.08,29.96,11,1,11,0.00
2013-8-2,78.6,68.3,62.4,63.0,60.0,58.1,89,76,57,30.03,29.95,7,0,8,0.00
2013-8-3,78.3,67.5,62.4,63.1,60.4,58.1,89,79,59,30.06,29.99,7,0,9,0.00
2013-8-4,80.1,69.3,62.2,63.9,60.7,58.6,88,75,54,30.07,29.97,8,0,10,0.00
2013-8-5,83.5,67.7,58.6,64.4,59.6,56.8,94,78,44,30.06,29.98,7,0,8,0.00
2013-8-6,77.9,68.5,62.2,62.2,59.9,57.9,87,75,58,30.10,30.02,8,0,8,0.00
2013-8-7,79.2,67.9,61.3,62.2,59.5,57.7,92,76,55,30.14,30.02,8,0,10,0.00
2013-8-8,81.7,67.0,56.7,63.1,58.8,54.3,93,77,49,30.06,29.96,8,0,8,0.00
2013-8-9,76.6,65.9,59.4,61.9,59.0,56.7,93,80,60,30.04,29.97,7,0,8,0.00
2013-8-10,76.6,66.5,61.2,61.0,58.4,56.3,89,76,57,30.10,30.01,7,0,9,0.00
2013-8-11,79.7,67.7,60.3,62.8,59.6,57.0,91,77,55,30.06,29.95,7,0,8,0.00
2013-8-12,79.3,67.7,61.5,63.9,60.7,58.8,91,79,59,30.04,29.95,7,0,9,0.00
2013-8-13,83.7,68.7,61.9,66.0,61.6,59.2,92,80,54,30.04,29.92,8,0,8,0.00
2013-8-14,84.6,67.8,59.7,66.6,61.3,57.7,93,81,55,29.99,29.89,7,0,9,0.00
2013-8-15,86.2,70.9,63.3,67.5,62.8,60.3,91,77,51,30.00,29.94,7,0,7,0.00
2013-8-16,90.7,73.5,62.2,66.9,63.0,60.1,94,73,39,30.01,29.95,6,0,6,0.00
2013-8-17,87.6,72.5,61.9,66.7,62.0,57.4,94,73,37,30.01,29.86,9,1,10,0.00
2013-8-18,79.5,68.9,62.2,65.7,62.1,59.5,92,80,61,29.97,29.88,10,1,11,0.00
2013-8-19,82.8,69.4,64.2,66.4,62.7,61.2,90,80,56,30.01,29.92,8,0,9,0.00
2013-8-20,88.9,71.9,62.8,65.5,62.2,60.3,92,74,44,29.99,29.88,11,1,11,0.00
2013-8-21,88.9,73.9,61.9,63.1,60.5,56.5,91,66,37,29.98,29.88,10,1,10,0.00
2013-8-22,92.1,77.1,62.8,63.3,57.1,36.1,88,56,16,29.98,29.85,12,1,12,0.00
2013-8-23,90.7,74.1,62.1,64.0,60.0,52.7,90,65,34,29.93,29.79,8,1,9,0.00
2013-8-24,86.4,68.9,58.3,65.3,60.6,56.5,95,77,48,29.94,29.81,8,1,9,0.00
2013-8-25,90.1,71.6,57.7,65.8,59.9,55.8,95,71,36,29.96,29.90,9,1,9,0.00
2013-8-26,91.8,77.8,65.7,68.2,62.1,54.7,87,61,42,29.97,29.86,8,1,10,0.00
2013-8-27,93.2,78.5,67.3,64.6,60.4,50.5,85,57,26,29.89,29.81,8,0,9,0.00
2013-8-28,97.0,79.9,67.3,65.3,61.9,58.1,82,57,31,29.94,29.82,8,1,10,0.00
2013-8-29,99.1,81.8,68.2,65.3,61.2,52.7,80,53,28,29.98,29.91,9,1,9,0.00
2013-8-30,91.8,83.4,74.5,73.4,68.5,60.6,72,61,48,30.02,29.94,10,1,15,0.00
2013-8-31,91.8,82.0,76.1,73.9,70.5,67.8,79,69,54,30.01,29.92,8,0,10,0.00
2013-9-1,91.9,79.8,71.6,72.7,69.2,64.6,83,71,52,29.98,29.88,10,1,10,0.00
2013-9-2,89.2,77.2,66.7,70.7,67.3,64.0,92,73,48,29.96,29.85,10,1,11,0.00
2013-9-3,97.7,81.8,70.9,70.9,66.7,61.7,88,64,32,29.95,29.86,8,0,9,0.00
2013-9-4,99.5,83.1,70.0,68.4,64.1,58.3,87,57,29,29.95,29.87,9,1,9,0.00
2013-9-5,99.3,82.8,69.6,67.3,62.4,53.4,82,55,25,29.94,29.86,9,0,9,0.00
2013-9-6,100.0,81.8,69.6,67.8,61.5,52.3,83,55,21,29.92,29.83,10,0,11,0.00
2013-9-7,97.9,81.2,69.6,65.8,61.9,55.6,80,56,27,29.91,29.84,10,0,10,0.00
2013-9-8,92.1,75.5,65.7,65.7,60.5,50.7,89,64,26,29.90,29.80,8,0,8,0.00
2013-9-9,82.8,71.1,64.8,64.0,61.1,59.0,84,72,48,29.87,29.79,8,0,8,0.00
2013-9-10,79.0,68.8,63.0,63.5,60.7,58.5,89,76,58,30.01,29.86,7,0,8,0.00
2013-9-11,80.1,68.6,63.3,63.5,60.2,58.3,87,75,55,30.06,29.97,8,0,9,0.00
2013-9-12,86.5,72.2,59.5,64.2,60.7,56.8,93,70,39,30.00,29.87,11,1,11,0.00
2013-9-13,87.8,72.2,59.0,66.6,59.7,53.8,92,68,33,29.90,29.72,8,1,8,0.00
2013-9-14,88.9,73.3,60.4,67.1,61.7,57.2,92,70,38,29.78,29.67,10,1,11,0.00
2013-9-15,93.6,74.5,63.0,67.3,62.7,58.6,95,70,34,29.83,29.75,10,1,13,0.00
2013-9-16,93.4,73.9,62.2,66.6,61.7,57.7,92,69,33,29.87,29.78,9,1,12,0.00
2013-9-17,77.0,66.8,62.1,64.2,61.3,59.9,93,83,60,29.88,29.79,8,0,10,0.00
2013-9-18,77.0,67.8,61.9,61.9,59.6,56.1,88,76,59,29.87,29.80,8,1,10,0.00
2013-9-19,78.3,67.6,59.2,64.4,60.9,56.7,93,80,61,29.89,29.82,7,0,8,0.00
2013-9-20,69.6,66.9,64.8,63.7,61.7,60.4,87,84,79,29.95,29.87,7,0,8,0.00
2013-9-21,77.2,68.1,62.1,61.0,59.4,57.6,89,74,56,29.97,29.86,10,0,10,0.00
2013-9-22,75.7,66.5,58.8,60.4,57.1,52.5,93,73,50,29.91,29.84,10,0,12,0.00
2013-9-23,93.4,72.2,55.4,58.6,52.2,45.5,88,56,20,29.96,29.86,10,1,10,0.00
2013-9-24,88.5,72.5,58.8,61.9,53.7,45.9,83,57,24,29.99,29.90,7,0,8,0.00
2013-9-25,75.4,67.1,61.2,62.1,59.2,54.9,88,76,61,29.92,29.77,12,1,12,0.00
2013-9-26,74.1,65.5,58.8,57.6,54.3,47.3,83,68,42,29.95,29.78,9,0,9,0.00
2013-9-27,83.3,67.0,51.6,59.0,46.2,35.1,87,53,22,30.05,29.94,8,0,10,0.00
2013-9-28,88.9,70.5,53.2,47.1,41.1,30.2,68,39,14,30.10,30.01,9,1,10,0.00
2013-9-29,89.1,69.8,54.1,55.9,43.7,27.5,70,44,11,30.12,30.02,10,1,11,0.00
2013-9-30,85.8,69.0,54.1,61.9,51.8,39.4,89,60,24,30.06,29.91,11,0,11,0.00
2013-10-1,78.3,65.9,55.9,61.7,58.9,54.0,95,80,52,30.00,29.93,7,1,9,0.00
2013-10-2,75.2,66.7,62.8,61.3,58.8,56.5,84,76,60,30.04,29.94,8,0,9,0.00
2013-10-3,72.9,65.9,61.9,61.5,59.0,56.1,85,79,67,29.99,29.89,8,0,11,0.00
2013-10-4,87.3,70.4,59.0,61.0,53.9,17.1,91,65,8,30.09,29.94,16,1,17,0.00
2013-10-5,94.5,76.5,63.1,48.4,28.0,12.4,58,19,6,30.16,30.06,14,1,14,0.00
2013-10-6,93.9,73.7,55.0,41.2,31.4,18.1,46,25,7,30.13,30.01,9,1,9,0.00
2013-10-7,85.6,68.5,56.5,57.0,47.4,37.0,81,49,20,30.03,29.96,7,0,7,0.00
2013-10-8,70.9,63.4,57.4,58.6,55.3,51.6,91,76,63,29.99,29.88,10,1,11,0.00
2013-10-9,64.0,57.5,50.9,54.7,51.6,47.8,94,81,64,29.90,29.80,10,1,10,0.71
2013-10-10,68.5,57.0,46.8,54.5,49.8,45.3,97,79,51,30.09,29.88,10,0,11,0.16
2013-10-11,75.7,60.7,48.9,58.8,52.4,46.8,94,76,49,30.11,29.99,10,1,10,0.00
2013-10-12,76.5,62.0,51.6,61.0,55.4,50.0,96,81,47,30.04,29.95,7,0,8,0.00
2013-10-13,69.3,62.1,55.4,57.6,55.5,52.3,90,80,64,30.09,29.99,10,0,11,0.00
2013-10-14,84.9,64.5,49.5,60.4,53.9,47.5,96,73,33,30.09,29.95,8,1,9,0.00
2013-10-15,85.8,68.0,52.7,56.7,45.0,32.2,92,53,16,30.03,29.93,8,0,12,0.00
2013-10-16,86.4,68.3,52.3,48.2,39.1,29.8,78,41,14,30.12,30.02,7,0,8,0.00
2013-10-17,83.1,66.2,51.4,52.7,43.0,36.7,77,46,22,30.09,29.98,8,0,10,0.00
2013-10-18,82.0,65.7,50.9,55.2,49.8,43.7,83,60,31,30.07,29.98,13,1,13,0.00
2013-10-19,86.5,66.5,51.6,57.9,51.9,41.9,89,64,22,30.07,30.00,10,1,10,0.00
2013-10-20,78.6,61.5,48.0,61.0,54.5,45.9,98,80,51,30.06,29.96,7,0,9,0.00
2013-10-21,77.5,60.4,54.3,60.4,54.9,52.3,94,84,54,30.05,29.97,7,0,7,0.00
2013-10-27,71.4,63.7,61.0,60.1,58.0,55.9,87,82,67,29.92,29.89,6,0,7,0.00
2013-10-28,62.6,59.7,55.9,56.7,52.8,49.8,91,78,66,30.00,29.90,11,1,14,0.00
2013-10-29,66.7,56.8,49.3,51.6,49.6,46.9,93,78,52,30.09,29.99,8,0,10,0.00
2013-10-30,70.5,57.7,47.1,55.2,50.4,45.1,93,78,54,30.13,30.05,9,0,10,0.00
2013-10-31,79.5,60.9,46.0,51.8,47.8,43.3,93,67,28,30.16,30.04,7,0,9,0.00
2013-11-1,84.2,64.9,48.6,49.6,43.8,36.0,88,53,18,30.16,29.99,10,0,10,0.00
2013-11-2,81.1,63.5,51.3,59.2,47.2,37.0,91,59,23,30.06,29.94,8,0,8,0.00
2013-11-3,67.8,61.3,54.9,57.0,54.4,52.0,93,78,64,29.99,29.89,10,0,11,0.00
2013-11-4,66.7,59.6,51.6,54.5,51.4,48.2,89,75,58,30.01,29.86,6,0,8,0.00
2013-11-5,77.2,60.2,46.2,54.5,35.1,14.0,94,51,10,30.19,30.01,14,1,14,0.00
2013-11-6,81.7,61.0,43.7,41.0,32.0,22.1,61,38,13,30.26,30.14,9,0,11,0.00
2013-11-7,83.8,65.2,48.9,43.2,32.8,16.9,64,36,9,30.17,30.05,9,1,10,0.00
2013-11-8,78.3,61.8,48.7,53.8,44.3,35.2,94,56,28,30.10,29.99,6,0,7,0.00
2013-11-9,78.3,59.2,46.0,54.0,45.5,33.3,96,68,21,30.14,30.06,8,0,8,0.00
2013-11-10,84.6,61.9,49.8,56.5,44.7,19.6,91,62,11,30.20,30.09,6,0,7,0.00
2013-11-11,76.5,60.5,46.4,55.6,49.0,41.0,92,70,35,30.20,30.08,8,1,9,0.00
2013-11-12,73.8,62.6,50.9,57.2,52.7,48.7,94,72,43,30.23,30.11,8,1,8,0.00
2013-11-13,92.8,68.9,52.3,54.1,46.3,42.1,82,51,19,30.11,29.94,7,0,8,0.00
2013-11-14,89.8,68.4,54.9,55.4,43.1,31.6,92,46,14,29.99,29.84,6,0,7,0.00
2013-11-15,66.7,60.7,55.0,57.6,55.5,52.2,93,83,67,29.84,29.74,6,0,7,0.00
2013-11-16,66.0,58.5,53.4,54.0,50.7,46.4,93,76,52,30.01,29.82,7,0,11,0.00
2013-11-17,68.5,58.8,50.5,55.0,51.5,47.7,92,78,56,30.16,30.01,7,0,8,0.00
2013-11-18,67.8,57.7,48.7,55.6,52.2,46.8,95,83,63,30.22,30.11,8,0,9,0.00
2013-11-19,66.4,59.1,55.0,55.2,53.7,52.2,91,83,66,30.15,30.01,5,0,6,0.00
2013-11-20,64.9,59.0,53.2,57.0,54.3,50.9,94,85,71,30.05,29.95,6,0,6,0.08
2013-11-21,60.8,57.4,53.8,58.5,55.6,52.0,96,94,90,29.96,29.90,8,0,8,0.36
2013-11-22,57.7,52.5,49.6,53.6,48.7,46.2,97,87,69,30.02,29.89,8,0,10,0.02
2013-11-23,65.8,54.3,45.9,49.6,46.6,43.3,93,77,48,30.15,30.02,5,0,7,0.00
2013-11-24,66.6,54.3,43.5,52.7,47.0,40.8,92,78,52,30.26,30.14,8,0,8,0.00
2013-11-25,71.1,56.2,44.1,53.6,46.3,40.6,91,72,42,30.30,30.22,6,0,7,0.00
2013-11-26,76.6,59.4,45.0,51.3,44.3,39.0,90,62,26,30.25,30.10,6,-3,8,0.00
2013-11-27,74.5,60.0,50.4,50.7,45.3,39.9,83,61,35,30.10,29.94,6,0,7,0.00
2013-11-28,68.4,56.1,46.4,51.8,46.2,40.6,84,71,47,30.13,29.95,9,0,9,0.00
2013-11-29,62.8,56.6,52.2,57.7,53.0,48.4,94,88,79,30.24,30.12,7,0,8,0.13
2013-11-30,74.8,59.3,48.6,55.0,50.4,46.6,94,75,42,30.25,30.13,7,0,8,0.00
2013-12-1,82.2,61.7,48.7,54.9,46.0,34.3,93,63,19,30.27,30.14,6,0,7,0.00
2013-12-2,73.8,58.7,47.5,49.1,42.4,35.2,78,57,31,30.18,29.98,4,0,5,0.00
2013-12-3,63.9,55.6,45.7,54.9,49.0,40.1,88,79,71,29.98,29.83,9,0,10,0.00
2013-12-4,61.3,53.1,45.1,47.7,41.7,37.9,82,66,44,30.04,29.86,10,0,10,0.00
2013-12-5,60.4,49.4,40.5,43.3,39.5,34.7,89,71,42,30.17,30.01,7,0,8,0.00
2013-12-6,58.5,49.6,43.7,43.5,40.1,38.1,82,71,52,30.25,30.17,12,0,12,0.00
2013-12-7,55.0,48.5,42.1,51.8,42.8,37.8,93,81,61,30.20,30.08,8,0,11,0.17
2013-12-8,55.2,45.7,37.4,41.9,39.0,35.2,94,79,55,30.27,30.17,6,0,7,0.00
2013-12-9,62.8,45.5,32.9,36.7,26.6,13.8,90,54,19,30.34,30.24,9,0,9,0.00
2013-12-10,68.9,48.4,34.2,37.2,29.0,14.0,73,51,15,30.33,30.15,6,0,7,0.00
2013-12-11,72.0,52.7,38.1,42.4,33.3,25.5,77,52,20,30.23,30.15,6,0,7,0.00
2013-12-12,67.5,53.5,43.3,50.2,43.2,34.3,93,72,32,30.28,30.20,6,0,7,0.00
2013-12-13,67.1,51.2,40.5,51.3,44.3,37.2,94,79,41,30.29,30.19,5,0,6,0.00
2013-12-14,75.9,54.9,38.7,51.3,37.5,28.0,96,60,19,30.35,30.23,7,0,10,0.00
2013-12-15,84.4,60.7,44.4,49.6,36.6,23.7,67,45,12,30.29,30.12,7,0,8,0.00
2013-12-16,84.4,63.0,49.3,46.6,38.1,31.6,65,43,17,30.19,30.10,5,0,6,0.00
2013-12-17,77.7,63.2,51.4,52.7,45.1,37.2,77,53,32,30.18,30.06,5,0,5,0.00
2013-12-18,70.0,59.7,54.1,55.6,51.7,45.7,89,76,43,30.08,29.91,9,0,9,0.00
2013-12-19,56.1,51.2,42.6,51.3,47.0,40.8,94,86,76,29.94,29.79,7,0,7,0.03
2013-12-20,62.1,48.8,38.5,50.2,44.2,36.9,96,85,62,30.02,29.84,6,0,8,0.00
2013-12-21,61.5,50.5,42.3,51.1,45.7,39.6,93,84,66,30.15,29.99,8,0,8,0.00
2013-12-22,71.1,53.4,40.8,54.0,46.7,39.2,99,80,50,30.32,30.15,7,1,7,0.00
2013-12-23,76.5,58.7,43.5,48.2,41.9,37.6,93,60,25,30.36,30.24,7,1,8,0.00
2013-12-24,77.4,59.4,45.3,47.5,41.8,37.6,77,56,26,30.25,30.14,6,0,7,0.00
2013-12-25,81.9,61.6,46.2,43.7,32.3,22.1,75,41,12,30.24,30.15,9,1,9,0.00
2013-12-26,81.9,60.7,44.6,38.8,25.8,11.7,52,31,7,30.22,30.11,11,0,11,0.00
2013-12-27,84.7,60.4,44.2,36.5,28.1,16.2,51,33,9,30.21,30.10,7,0,8,0.00
2013-12-28,71.2,56.7,47.3,52.0,39.0,27.9,93,55,23,30.12,29.99,8,0,11,0.00
2013-12-29,78.6,58.4,41.5,50.9,32.1,4.1,95,50,7,30.21,30.05,16,1,19,0.00
2013-12-30,75.0,55.9,40.8,34.9,27.2,16.9,60,37,13,30.32,30.20,7,0,8,0.00
2013-12-31,72.0,53.9,41.0,47.3,37.6,25.5,87,57,24,30.27,30.14,6,0,6,0.00
2014-1-1,70.9,54.0,39.6,54.1,46.0,37.8,98,77,38,30.20,30.10,7,1,8,0.00
2014-1-2,78.3,58.3,43.0,50.9,40.6,27.9,92,59,16,30.16,30.05,10,0,10,0.00